createdAt,value
2023-05-14T00:00:48.812Z,92.05
2023-05-14T00:01:48.992Z,92.06
2023-05-14T00:02:49.213Z,92.02
2023-05-14T00:03:49.335Z,92.01
2023-05-14T00:04:49.380Z,92.01
2023-05-14T00:05:49.455Z,91.95
2023-05-14T00:06:49.619Z,91.90
2023-05-14T00:07:49.805Z,91.85
2023-05-14T00:08:49.885Z,91.84
2023-05-14T00:09:50.000Z,91.83
2023-05-14T00:10:50.170Z,91.85
2023-05-14T00:11:50.290Z,91.83
2023-05-14T00:12:50.502Z,91.86
2023-05-14T00:13:50.445Z,91.85
2023-05-14T00:14:50.559Z,91.85
2023-05-14T00:15:50.840Z,91.90
2023-05-14T00:16:50.978Z,91.95
2023-05-14T00:17:51.003Z,92.03
2023-05-14T00:18:51.118Z,92.09
2023-05-14T00:19:51.222Z,92.21
2023-05-14T00:20:51.349Z,92.28
2023-05-14T00:21:51.612Z,92.34
2023-05-14T00:22:51.617Z,92.34
2023-05-14T00:23:51.785Z,92.35
2023-05-14T00:24:51.838Z,92.33
2023-05-14T00:25:51.985Z,92.29
2023-05-14T00:26:52.179Z,92.27
2023-05-14T00:27:52.306Z,92.23
2023-05-14T00:28:52.492Z,92.20
2023-05-14T00:29:52.558Z,92.17
2023-05-14T00:30:52.716Z,92.15
2023-05-14T00:31:53.051Z,92.17
2023-05-14T00:32:53.065Z,92.20
2023-05-14T00:33:53.105Z,92.28
2023-05-14T00:34:53.164Z,92.37
2023-05-14T00:35:53.297Z,92.41
2023-05-14T00:36:53.448Z,92.47
2023-05-14T00:37:53.573Z,92.54
2023-05-14T00:38:53.809Z,92.58
2023-05-14T00:39:53.929Z,92.62
2023-05-14T00:40:54.029Z,92.62
2023-05-14T00:41:54.136Z,92.62
2023-05-14T00:42:54.266Z,92.62
2023-05-14T00:43:54.422Z,92.60
2023-05-14T00:44:54.560Z,92.60
2023-05-14T00:45:54.627Z,92.56
2023-05-14T00:46:54.873Z,92.53
2023-05-14T00:47:54.959Z,92.43
2023-05-14T00:48:55.038Z,92.36
2023-05-14T00:49:55.186Z,92.32
2023-05-14T00:50:55.284Z,92.29
2023-05-14T00:51:55.385Z,92.23
2023-05-14T00:52:55.574Z,92.15
2023-05-14T00:53:55.717Z,92.08
2023-05-14T00:54:55.851Z,92.04
2023-05-14T00:55:55.898Z,92.04
2023-05-14T00:56:56.041Z,92.03
2023-05-14T00:57:56.171Z,92.03
2023-05-14T00:58:56.329Z,92.00
2023-05-14T00:59:56.486Z,92.02
2023-05-14T01:00:56.760Z,92.05
2023-05-14T01:01:56.762Z,92.10
2023-05-14T01:02:56.950Z,92.13
2023-05-14T01:03:57.096Z,92.13
2023-05-14T01:04:57.153Z,92.10
2023-05-14T01:05:57.341Z,92.12
2023-05-14T01:06:57.412Z,92.14
2023-05-14T01:07:57.612Z,92.19
2023-05-14T01:08:57.671Z,92.24
2023-05-14T01:09:57.873Z,92.32
2023-05-14T01:10:57.925Z,92.39
2023-05-14T01:11:58.014Z,92.43
2023-05-14T01:12:58.249Z,92.53
2023-05-14T01:13:58.297Z,92.63
2023-05-14T01:14:58.551Z,92.68
2023-05-14T01:15:58.668Z,92.72
2023-05-14T01:16:58.758Z,92.78
2023-05-14T01:17:58.896Z,92.82
2023-05-14T01:18:58.941Z,92.89
2023-05-14T01:19:59.047Z,92.94
2023-05-14T01:20:59.160Z,93.03
2023-05-14T01:21:59.359Z,93.12
2023-05-14T01:22:59.524Z,93.14
2023-05-14T01:23:59.578Z,93.19
2023-05-14T01:24:59.665Z,93.19
2023-05-14T01:25:59.870Z,93.24
2023-05-14T01:26:59.930Z,93.27
2023-05-14T01:28:00.100Z,93.32
2023-05-14T01:29:00.264Z,93.35
2023-05-14T01:30:00.391Z,93.34
2023-05-14T01:31:00.513Z,93.34
2023-05-14T01:32:00.721Z,93.33
2023-05-14T01:33:00.792Z,93.32
2023-05-14T01:34:00.964Z,93.30
2023-05-14T01:35:01.096Z,93.25
2023-05-14T01:36:01.270Z,93.24
2023-05-14T01:37:01.301Z,93.24
2023-05-14T01:38:01.447Z,93.21
2023-05-14T01:39:01.639Z,93.21
2023-05-14T01:40:01.825Z,93.18
2023-05-14T01:41:01.915Z,93.15
2023-05-14T01:42:02.051Z,93.10
2023-05-14T01:43:02.282Z,93.05
2023-05-14T01:44:02.247Z,92.97
2023-05-14T01:45:02.409Z,92.91
2023-05-14T01:46:02.711Z,92.86
2023-05-14T01:47:02.762Z,92.87
2023-05-14T01:48:02.826Z,92.87
2023-05-14T01:49:02.886Z,92.85
2023-05-14T01:50:03.002Z,92.83
2023-05-14T01:51:03.153Z,92.90
2023-05-14T01:52:03.228Z,92.94
2023-05-14T01:53:03.426Z,92.90
2023-05-14T01:54:03.545Z,92.88
2023-05-14T01:55:03.744Z,92.82
2023-05-14T01:56:03.790Z,92.68
2023-05-14T01:57:03.916Z,92.62
2023-05-14T01:58:04.077Z,92.68
2023-05-14T01:59:04.204Z,92.59
2023-05-14T02:00:04.295Z,92.45
2023-05-14T02:01:04.508Z,92.40
2023-05-14T02:02:04.612Z,92.38
2023-05-14T02:03:04.759Z,92.44
2023-05-14T02:04:04.889Z,92.49
2023-05-14T02:05:06.946Z,92.55
2023-05-14T02:06:05.089Z,92.62
2023-05-14T02:07:05.236Z,92.62
2023-05-14T02:08:05.339Z,92.61
2023-05-14T02:09:05.441Z,92.58
2023-05-14T02:10:05.504Z,92.55
2023-05-14T02:11:05.668Z,92.48
2023-05-14T02:12:05.787Z,92.38
2023-05-14T02:13:05.920Z,92.40
2023-05-14T02:14:06.144Z,92.33
2023-05-14T02:15:06.199Z,92.22
2023-05-14T02:16:06.399Z,92.16
2023-05-14T02:17:06.439Z,92.16
2023-05-14T02:18:06.598Z,92.16
2023-05-14T02:19:06.680Z,92.18
2023-05-14T02:20:06.917Z,92.18
2023-05-14T02:21:06.920Z,92.13
2023-05-14T02:22:07.148Z,92.14
2023-05-14T02:23:07.208Z,92.20
2023-05-14T02:24:07.354Z,92.32
2023-05-14T02:25:07.537Z,92.37
2023-05-14T02:26:07.999Z,92.43
2023-05-14T02:27:07.687Z,92.44
2023-05-14T02:28:07.826Z,92.42
2023-05-14T02:29:07.989Z,92.39
2023-05-14T02:30:08.113Z,92.36
2023-05-14T02:31:08.355Z,92.27
2023-05-14T02:32:08.429Z,92.45
2023-05-14T02:33:08.577Z,92.51
2023-05-14T02:34:08.660Z,92.60
2023-05-14T02:35:08.762Z,92.61
2023-05-14T02:36:08.915Z,92.50
2023-05-14T02:37:09.045Z,92.40
2023-05-14T02:38:09.186Z,92.37
2023-05-14T02:39:09.393Z,92.40
2023-05-14T02:40:09.441Z,92.39
2023-05-14T02:41:09.500Z,92.43
2023-05-14T02:42:09.712Z,92.43
2023-05-14T02:43:09.806Z,92.41
2023-05-14T02:44:09.909Z,92.39
2023-05-14T02:45:10.058Z,92.35
2023-05-14T02:46:10.160Z,92.33
2023-05-14T02:47:10.414Z,92.34
2023-05-14T02:48:10.470Z,92.36
2023-05-14T02:49:10.550Z,92.41
2023-05-14T02:50:10.747Z,92.46
2023-05-14T02:51:10.748Z,92.49
2023-05-14T02:52:11.006Z,92.54
2023-05-14T02:53:11.111Z,92.55
2023-05-14T02:54:11.238Z,92.53
2023-05-14T02:55:11.291Z,92.52
2023-05-14T02:56:11.369Z,92.48
2023-05-14T02:57:11.538Z,92.41
2023-05-14T02:58:11.737Z,92.35
2023-05-14T02:59:11.828Z,92.30
2023-05-14T03:00:11.923Z,92.25
2023-05-14T03:01:12.109Z,92.28
2023-05-14T03:02:12.712Z,92.23
2023-05-14T03:03:12.269Z,92.24
2023-05-14T03:04:12.392Z,92.23
2023-05-14T03:05:12.602Z,92.22
2023-05-14T03:06:12.756Z,92.16
2023-05-14T03:07:12.791Z,92.20
2023-05-14T03:08:12.962Z,92.45
2023-05-14T03:09:13.011Z,92.50
2023-05-14T03:10:13.223Z,92.39
2023-05-14T03:11:13.274Z,92.40
2023-05-14T03:12:13.412Z,92.33
2023-05-14T03:13:13.606Z,92.23
2023-05-14T03:14:13.766Z,92.26
2023-05-14T03:15:13.917Z,92.32
2023-05-14T03:16:14.016Z,92.32
2023-05-14T03:17:14.129Z,92.29
2023-05-14T03:18:14.256Z,92.28
2023-05-14T03:19:14.492Z,92.28
2023-05-14T03:20:14.571Z,92.30
2023-05-14T03:21:14.699Z,92.29
2023-05-14T03:22:14.914Z,92.30
2023-05-14T03:23:14.913Z,92.30
2023-05-14T03:24:15.005Z,92.26
2023-05-14T03:25:15.130Z,92.24
2023-05-14T03:26:15.246Z,92.25
2023-05-14T03:27:15.368Z,92.27
2023-05-14T03:28:15.512Z,92.27
2023-05-14T03:29:15.627Z,92.25
2023-05-14T03:30:15.813Z,92.23
2023-05-14T03:31:15.925Z,92.22
2023-05-14T03:32:16.017Z,92.21
2023-05-14T03:33:16.190Z,92.17
2023-05-14T03:34:16.261Z,92.15
2023-05-14T03:35:16.451Z,92.20
2023-05-14T03:36:16.632Z,92.24
2023-05-14T03:37:16.653Z,92.25
2023-05-14T03:38:16.833Z,92.28
2023-05-14T03:39:17.061Z,92.28
2023-05-14T03:40:17.029Z,92.23
2023-05-14T03:41:17.149Z,92.32
2023-05-14T03:42:17.486Z,92.36
2023-05-14T03:43:17.367Z,92.51
2023-05-14T03:44:17.533Z,92.59
2023-05-14T03:45:17.668Z,92.65
2023-05-14T03:46:17.842Z,92.67
2023-05-14T03:47:17.983Z,92.65
2023-05-14T03:48:18.136Z,92.68
2023-05-14T03:49:18.282Z,92.74
2023-05-14T03:50:18.421Z,92.74
2023-05-14T03:51:18.553Z,92.75
2023-05-14T03:52:18.629Z,92.70
2023-05-14T03:53:18.881Z,92.63
2023-05-14T03:54:18.872Z,92.59
2023-05-14T03:55:19.064Z,92.52
2023-05-14T03:56:19.122Z,92.50
2023-05-14T03:57:19.288Z,92.49
2023-05-14T03:58:19.445Z,92.46
2023-05-14T03:59:19.570Z,92.46
2023-05-14T04:00:19.685Z,92.43
2023-05-14T04:01:19.783Z,92.45
2023-05-14T04:02:19.890Z,92.43
2023-05-14T04:03:20.136Z,92.39
2023-05-14T04:04:20.201Z,92.33
2023-05-14T04:05:20.222Z,92.28
2023-05-14T04:06:20.325Z,92.24
2023-05-14T04:07:20.545Z,92.25
2023-05-14T04:08:20.655Z,92.22
2023-05-14T04:09:20.774Z,92.18
2023-05-14T04:10:20.958Z,92.15
2023-05-14T04:11:20.975Z,92.11
2023-05-14T04:12:21.113Z,92.11
2023-05-14T04:13:21.284Z,92.20
2023-05-14T04:14:21.402Z,92.30
2023-05-14T04:15:22.037Z,92.34
2023-05-14T04:16:21.671Z,92.41
2023-05-14T04:17:21.775Z,92.50
2023-05-14T04:18:21.945Z,92.58
2023-05-14T04:19:22.425Z,92.61
2023-05-14T04:20:22.314Z,92.63
2023-05-14T04:21:22.307Z,92.58
2023-05-14T04:22:22.468Z,92.53
2023-05-14T04:23:22.590Z,92.55
2023-05-14T04:24:22.768Z,92.57
2023-05-14T04:25:22.892Z,92.55
2023-05-14T04:26:22.972Z,92.58
2023-05-14T04:27:23.096Z,92.62
2023-05-14T04:28:23.205Z,92.61
2023-05-14T04:29:23.368Z,92.67
2023-05-14T04:30:23.592Z,92.66
2023-05-14T04:31:23.847Z,92.61
2023-05-14T04:32:23.790Z,92.61
2023-05-14T04:33:23.870Z,92.65
2023-05-14T04:34:24.085Z,92.69
2023-05-14T04:35:25.205Z,92.69
2023-05-14T04:36:24.378Z,92.71
2023-05-14T04:37:24.366Z,92.73
2023-05-14T04:38:24.505Z,92.72
2023-05-14T04:39:24.664Z,92.59
2023-05-14T04:40:24.982Z,92.50
2023-05-14T04:41:24.933Z,92.35
2023-05-14T04:42:25.160Z,92.20
2023-05-14T04:43:25.152Z,92.22
2023-05-14T04:44:25.295Z,92.19
2023-05-14T04:45:25.370Z,92.25
2023-05-14T04:46:25.598Z,92.23
2023-05-14T04:47:25.698Z,92.30
2023-05-14T04:48:25.878Z,92.29
2023-05-14T04:49:25.968Z,92.12
2023-05-14T04:50:26.314Z,92.12
2023-05-14T04:51:26.166Z,92.11
2023-05-14T04:52:26.284Z,91.96
2023-05-14T04:53:26.418Z,91.95
2023-05-14T04:54:27.118Z,91.97
2023-05-14T04:55:26.700Z,92.10
2023-05-14T04:56:26.743Z,92.15
2023-05-14T04:57:26.953Z,92.10
2023-05-14T04:58:27.017Z,92.18
2023-05-14T04:59:27.124Z,92.13
2023-05-14T05:00:27.471Z,92.11
2023-05-14T05:01:27.525Z,92.13
2023-05-14T05:02:27.570Z,92.15
2023-05-14T05:03:27.748Z,92.19
2023-05-14T05:04:27.800Z,92.14
2023-05-14T05:05:27.939Z,91.98
2023-05-14T05:06:28.027Z,92.09
2023-05-14T05:07:28.165Z,92.14
2023-05-14T05:08:28.359Z,92.01
2023-05-14T05:09:28.437Z,91.87
2023-05-14T05:10:28.661Z,91.82
2023-05-14T05:11:28.709Z,91.71
2023-05-14T05:12:28.823Z,91.88
2023-05-14T05:13:29.139Z,91.92
2023-05-14T05:14:29.038Z,91.58
2023-05-14T05:15:29.210Z,91.81
2023-05-14T05:16:29.361Z,91.64
2023-05-14T05:17:29.487Z,91.98
2023-05-14T05:18:29.601Z,92.18
2023-05-14T05:19:42.477Z,92.19
2023-05-14T05:20:30.892Z,91.51
2023-05-14T05:21:30.006Z,91.51
2023-05-14T05:22:30.246Z,91.46
2023-05-14T05:23:30.247Z,91.25
2023-05-14T05:24:30.453Z,90.89
2023-05-14T05:25:30.541Z,90.83
2023-05-14T05:26:30.818Z,90.85
2023-05-14T05:27:30.770Z,90.85
2023-05-14T05:28:30.966Z,90.81
2023-05-14T05:29:31.124Z,90.57
2023-05-14T05:30:31.395Z,90.45
2023-05-14T05:31:31.403Z,89.80
2023-05-14T05:32:31.669Z,89.58
2023-05-14T05:33:31.704Z,89.31
2023-05-14T05:34:31.625Z,88.64
2023-05-14T05:35:31.801Z,88.60
2023-05-14T05:36:31.959Z,89.34
2023-05-14T05:37:32.029Z,88.25
2023-05-14T05:38:32.166Z,88.07
2023-05-14T05:39:32.232Z,88.84
2023-05-14T05:40:32.343Z,89.10
2023-05-14T05:41:32.438Z,89.29
2023-05-14T05:42:32.725Z,88.71
2023-05-14T05:43:32.754Z,88.33
2023-05-14T05:44:32.878Z,88.42
2023-05-14T05:45:32.946Z,87.69
2023-05-14T05:46:33.128Z,87.35
2023-05-14T05:47:33.180Z,85.40
2023-05-14T05:48:33.391Z,84.98
2023-05-14T05:49:33.456Z,85.15
2023-05-14T05:50:33.538Z,85.72
2023-05-14T05:51:33.730Z,86.21
2023-05-14T05:52:33.922Z,86.59
2023-05-14T05:53:33.931Z,86.74
2023-05-14T05:54:34.123Z,86.92
2023-05-14T05:55:34.200Z,86.98
2023-05-14T05:56:34.469Z,87.48
2023-05-14T05:57:34.539Z,87.84
2023-05-14T05:58:35.336Z,86.77
2023-05-14T05:59:34.827Z,87.30
2023-05-14T06:00:34.948Z,87.06
2023-05-14T06:01:35.048Z,86.98
2023-05-14T06:02:35.186Z,86.39
2023-05-14T06:03:35.337Z,86.89
2023-05-14T06:04:35.457Z,87.28
2023-05-14T06:05:35.780Z,87.25
2023-05-14T06:06:35.812Z,87.05
2023-05-14T06:07:35.797Z,86.85
2023-05-14T06:08:35.971Z,85.62
2023-05-14T06:09:36.003Z,86.07
2023-05-14T06:10:36.118Z,86.31
2023-05-14T06:11:36.289Z,83.49
2023-05-14T06:12:36.500Z,85.07
2023-05-14T06:13:36.538Z,84.57
2023-05-14T06:14:36.633Z,83.87
2023-05-14T06:15:36.895Z,83.67
2023-05-14T06:16:37.025Z,83.76
2023-05-14T06:17:37.105Z,84.24
2023-05-14T06:18:37.336Z,83.11
2023-05-14T06:19:37.295Z,83.27
2023-05-14T06:20:37.548Z,84.34
2023-05-14T06:21:37.536Z,84.40
2023-05-14T06:22:37.657Z,83.71
2023-05-14T06:23:37.787Z,83.21
2023-05-14T06:24:37.870Z,83.06
2023-05-14T06:25:38.052Z,83.73
2023-05-14T06:26:38.123Z,83.14
2023-05-14T06:27:38.267Z,83.50
2023-05-14T06:28:38.389Z,83.14
2023-05-14T06:29:38.526Z,82.71
2023-05-14T06:30:38.636Z,83.38
2023-05-14T06:31:38.776Z,84.25
2023-05-14T06:32:38.887Z,85.26
2023-05-14T06:33:39.018Z,85.56
2023-05-14T06:34:39.052Z,85.82
2023-05-14T06:35:39.157Z,86.00
2023-05-14T06:36:39.482Z,86.56
2023-05-14T06:37:39.457Z,86.37
2023-05-14T06:38:39.608Z,87.16
2023-05-14T06:39:39.728Z,86.86
2023-05-14T06:40:39.824Z,87.18
2023-05-14T06:41:39.979Z,87.56
2023-05-14T06:42:40.080Z,87.98
2023-05-14T06:43:40.202Z,88.27
2023-05-14T06:44:40.308Z,88.25
2023-05-14T06:45:40.446Z,88.06
2023-05-14T06:46:40.556Z,87.96
2023-05-14T06:47:40.715Z,87.90
2023-05-14T06:48:40.802Z,88.33
2023-05-14T06:49:40.919Z,88.73
2023-05-14T06:50:41.015Z,88.77
2023-05-14T06:51:41.202Z,88.94
2023-05-14T06:52:41.310Z,89.07
2023-05-14T06:53:41.441Z,89.25
2023-05-14T06:54:41.616Z,89.35
2023-05-14T06:55:41.717Z,88.81
2023-05-14T06:56:41.844Z,89.19
2023-05-14T06:57:42.037Z,89.01
2023-05-14T06:58:42.141Z,89.25
2023-05-14T06:59:42.204Z,89.64
2023-05-14T07:00:42.340Z,89.85
2023-05-14T07:01:42.450Z,89.56
2023-05-14T07:02:42.717Z,89.56
2023-05-14T07:03:42.678Z,89.93
2023-05-14T07:04:42.850Z,90.12
2023-05-14T07:05:42.914Z,90.42
2023-05-14T07:06:43.103Z,90.61
2023-05-14T07:07:43.142Z,90.64
2023-05-14T07:08:43.288Z,90.57
2023-05-14T07:09:43.365Z,90.35
2023-05-14T07:10:43.506Z,90.61
2023-05-14T07:11:43.631Z,90.67
2023-05-14T07:12:43.814Z,90.66
2023-05-14T07:13:43.913Z,90.71
2023-05-14T07:14:44.017Z,90.04
2023-05-14T07:15:44.128Z,89.76
2023-05-14T07:16:44.376Z,89.97
2023-05-14T07:17:44.424Z,90.11
2023-05-14T07:18:44.571Z,89.95
2023-05-14T07:19:44.575Z,89.69
2023-05-14T07:20:44.703Z,90.02
2023-05-14T07:21:44.823Z,90.09
2023-05-14T07:22:44.932Z,90.02
2023-05-14T07:23:45.066Z,90.08
2023-05-14T07:24:45.177Z,90.06
2023-05-14T07:25:45.296Z,89.07
2023-05-14T07:26:45.442Z,89.05
2023-05-14T07:27:45.602Z,89.35
2023-05-14T07:28:45.713Z,89.33
2023-05-14T07:29:45.766Z,89.40
2023-05-14T07:30:45.916Z,89.27
2023-05-14T07:31:46.149Z,88.69
2023-05-14T07:32:46.204Z,88.80
2023-05-14T07:33:46.316Z,88.51
2023-05-14T07:34:46.372Z,89.03
2023-05-14T07:35:46.504Z,88.99
2023-05-14T07:36:46.698Z,89.07
2023-05-14T07:37:46.829Z,88.80
2023-05-14T07:38:46.912Z,88.21
2023-05-14T07:39:47.042Z,88.36
2023-05-14T07:40:47.151Z,88.56
2023-05-14T07:41:47.301Z,88.57
2023-05-14T07:42:47.465Z,88.28
2023-05-14T07:43:47.539Z,87.88
2023-05-14T07:44:47.668Z,87.79
2023-05-14T07:45:47.891Z,88.00
2023-05-14T07:46:47.905Z,87.66
2023-05-14T07:47:48.179Z,88.33
2023-05-14T07:48:48.202Z,87.88
2023-05-14T07:49:48.364Z,88.40
2023-05-14T07:50:48.433Z,87.92
2023-05-14T07:51:48.515Z,88.10
2023-05-14T07:52:48.669Z,88.25
2023-05-14T07:53:48.774Z,87.57
2023-05-14T07:54:50.569Z,87.37
2023-05-14T07:55:49.051Z,87.34
2023-05-14T07:56:49.204Z,87.07
2023-05-14T07:57:49.309Z,87.38
2023-05-14T07:58:49.428Z,87.46
2023-05-14T07:59:49.541Z,87.57
2023-05-14T08:00:49.695Z,86.52
2023-05-14T08:01:49.906Z,86.93
2023-05-14T08:02:50.179Z,87.19
2023-05-14T08:03:50.195Z,87.10
2023-05-14T08:04:50.161Z,87.27
2023-05-14T08:05:50.273Z,87.10
2023-05-14T08:06:50.471Z,87.69
2023-05-14T08:07:50.535Z,87.40
2023-05-14T08:08:50.655Z,87.21
2023-05-14T08:09:50.784Z,87.34
2023-05-14T08:10:50.940Z,86.75
2023-05-14T08:11:50.974Z,87.00
2023-05-14T08:12:51.102Z,87.28
2023-05-14T08:13:51.220Z,87.24
2023-05-14T08:14:51.368Z,86.94
2023-05-14T08:15:51.539Z,86.87
2023-05-14T08:16:51.695Z,86.62
2023-05-14T08:17:51.866Z,85.88
2023-05-14T08:18:51.946Z,85.98
2023-05-14T08:19:52.054Z,85.98
2023-05-14T08:20:52.189Z,85.65
2023-05-14T08:21:52.261Z,85.22
2023-05-14T08:22:52.522Z,85.47
2023-05-14T08:23:52.505Z,85.28
2023-05-14T08:24:52.645Z,84.71
2023-05-14T08:25:52.800Z,84.19
2023-05-14T08:26:52.882Z,83.35
2023-05-14T08:27:53.035Z,84.02
2023-05-14T08:28:53.153Z,82.96
2023-05-14T08:29:53.283Z,83.36
2023-05-14T08:30:53.468Z,83.53
2023-05-14T08:31:53.528Z,83.70
2023-05-14T08:32:53.679Z,83.55
2023-05-14T08:33:53.823Z,83.04
2023-05-14T08:34:53.917Z,84.43
2023-05-14T08:35:54.014Z,84.73
2023-05-14T08:36:54.182Z,83.62
2023-05-14T08:37:54.298Z,83.74
2023-05-14T08:38:54.445Z,84.18
2023-05-14T08:39:54.548Z,84.88
2023-05-14T08:40:54.628Z,84.35
2023-05-14T08:41:54.784Z,84.72
2023-05-14T08:42:54.934Z,83.86
2023-05-14T08:43:55.109Z,83.36
2023-05-14T08:44:55.160Z,83.43
2023-05-14T08:45:55.276Z,84.15
2023-05-14T08:46:55.387Z,83.53
2023-05-14T08:47:55.787Z,83.47
2023-05-14T08:48:55.681Z,82.73
2023-05-14T08:49:55.802Z,82.93
2023-05-14T08:50:55.936Z,83.12
2023-05-14T08:51:56.022Z,82.85
2023-05-14T08:52:56.184Z,81.93
2023-05-14T08:53:56.296Z,83.10
2023-05-14T08:54:56.365Z,82.79
2023-05-14T08:55:56.589Z,82.11
2023-05-14T08:56:56.772Z,82.50
2023-05-14T08:57:56.778Z,82.52
2023-05-14T08:58:56.924Z,82.55
2023-05-14T08:59:57.052Z,79.87
2023-05-14T09:00:57.199Z,79.82
2023-05-14T09:01:57.276Z,80.85
2023-05-14T09:02:57.464Z,81.09
2023-05-14T09:03:57.570Z,81.72
2023-05-14T09:04:57.683Z,80.30
2023-05-14T09:05:59.973Z,80.37
2023-05-14T09:06:57.924Z,80.94
2023-05-14T09:07:58.076Z,79.47
2023-05-14T09:08:58.207Z,80.24
2023-05-14T09:09:58.338Z,81.57
2023-05-14T09:10:58.472Z,81.35
2023-05-14T09:11:58.540Z,81.27
2023-05-14T09:12:58.708Z,81.65
2023-05-14T09:13:58.894Z,81.55
2023-05-14T09:14:59.013Z,79.12
2023-05-14T09:15:59.150Z,80.54
2023-05-14T09:16:59.394Z,80.91
2023-05-14T09:17:59.373Z,80.77
2023-05-14T09:18:59.518Z,78.58
2023-05-14T09:19:59.664Z,76.93
2023-05-14T09:20:59.733Z,77.48
2023-05-14T09:21:59.947Z,78.37
2023-05-14T09:22:59.971Z,78.70
2023-05-14T09:24:00.161Z,79.23
2023-05-14T09:25:00.276Z,79.15
2023-05-14T09:26:00.381Z,78.61
2023-05-14T09:27:00.510Z,79.78
2023-05-14T09:28:00.674Z,79.44
2023-05-14T09:29:00.774Z,78.27
2023-05-14T09:30:00.892Z,78.06
2023-05-14T09:31:01.005Z,76.96
2023-05-14T09:32:01.135Z,78.05
2023-05-14T09:33:01.299Z,77.89
2023-05-14T09:34:01.384Z,76.37
2023-05-14T09:35:01.516Z,76.96
2023-05-14T09:36:01.655Z,75.98
2023-05-14T09:37:01.850Z,76.29
2023-05-14T09:38:01.968Z,77.06
2023-05-14T09:39:02.027Z,78.49
2023-05-14T09:40:02.129Z,76.49
2023-05-14T09:41:02.284Z,77.41
2023-05-14T09:42:02.370Z,76.32
2023-05-14T09:43:02.500Z,75.45
2023-05-14T09:44:04.160Z,75.05
2023-05-14T09:45:02.752Z,74.29
2023-05-14T09:46:02.889Z,74.56
2023-05-14T09:47:03.306Z,74.78
2023-05-14T09:48:03.370Z,72.38
2023-05-14T09:49:03.214Z,72.22
2023-05-14T09:50:03.337Z,74.12
2023-05-14T09:51:04.749Z,72.92
2023-05-14T09:52:03.658Z,74.86
2023-05-14T09:53:03.725Z,74.11
2023-05-14T09:54:03.901Z,72.76
2023-05-14T09:55:04.008Z,71.63
2023-05-14T09:56:04.185Z,70.57
2023-05-14T09:57:04.288Z,72.73
2023-05-14T09:58:04.420Z,73.35
2023-05-14T09:59:04.561Z,70.67
2023-05-14T10:00:04.670Z,70.78
2023-05-14T10:01:04.907Z,70.94
2023-05-14T10:02:04.937Z,71.82
2023-05-14T10:03:05.156Z,72.84
2023-05-14T10:04:05.251Z,72.81
2023-05-14T10:05:05.338Z,71.55
2023-05-14T10:06:05.488Z,73.00
2023-05-14T10:07:05.585Z,71.54
2023-05-14T10:08:05.766Z,70.82
2023-05-14T10:09:05.850Z,71.95
2023-05-14T10:10:05.972Z,71.26
2023-05-14T10:11:06.183Z,71.39
2023-05-14T10:12:06.221Z,72.15
2023-05-14T10:13:06.342Z,71.94
2023-05-14T10:14:06.571Z,71.77
2023-05-14T10:15:06.598Z,72.51
2023-05-14T10:16:06.763Z,72.16
2023-05-14T10:17:06.879Z,74.31
2023-05-14T10:18:06.989Z,73.98
2023-05-14T10:19:07.280Z,71.71
2023-05-14T10:20:07.214Z,72.32
2023-05-14T10:21:07.328Z,72.20
2023-05-14T10:22:07.510Z,73.29
2023-05-14T10:23:07.554Z,72.47
2023-05-14T10:24:07.700Z,70.10
2023-05-14T10:25:07.810Z,71.79
2023-05-14T10:26:07.912Z,70.16
2023-05-14T10:27:08.091Z,69.81
2023-05-14T10:28:08.168Z,68.23
2023-05-14T10:29:08.324Z,69.33
2023-05-14T10:30:08.435Z,68.60
2023-05-14T10:31:08.680Z,67.47
2023-05-14T10:32:08.741Z,68.03
2023-05-14T10:33:08.963Z,66.74
2023-05-14T10:34:08.975Z,69.99
2023-05-14T10:35:09.074Z,69.93
2023-05-14T10:36:09.202Z,69.70
2023-05-14T10:37:09.321Z,66.89
2023-05-14T10:38:09.456Z,68.01
2023-05-14T10:39:09.548Z,67.83
2023-05-14T10:40:09.652Z,67.72
2023-05-14T10:41:09.752Z,70.16
2023-05-14T10:42:09.887Z,66.62
2023-05-14T10:43:10.061Z,66.61
2023-05-14T10:44:10.193Z,65.89
2023-05-14T10:45:10.269Z,68.31
2023-05-14T10:46:10.441Z,69.08
2023-05-14T10:47:10.552Z,69.23
2023-05-14T10:48:10.684Z,67.58
2023-05-14T10:49:10.744Z,67.38
2023-05-14T10:50:10.923Z,64.36
2023-05-14T10:51:11.091Z,65.22
2023-05-14T10:52:11.153Z,67.27
2023-05-14T10:53:11.284Z,66.86
2023-05-14T10:54:11.404Z,66.43
2023-05-14T10:55:11.494Z,65.55
2023-05-14T10:56:11.614Z,66.51
2023-05-14T10:57:11.690Z,67.51
2023-05-14T10:58:11.821Z,65.13
2023-05-14T10:59:11.865Z,64.94
2023-05-14T11:00:11.995Z,67.00
2023-05-14T11:01:12.199Z,65.71
2023-05-14T11:02:12.277Z,64.93
2023-05-14T11:03:12.607Z,64.26
2023-05-14T11:04:12.627Z,63.77
2023-05-14T11:05:12.636Z,65.31
2023-05-14T11:06:12.746Z,65.57
2023-05-14T11:07:12.914Z,63.65
2023-05-14T11:08:13.011Z,63.38
2023-05-14T11:09:13.115Z,66.37
2023-05-14T11:10:13.248Z,64.33
2023-05-14T11:11:13.955Z,63.68
2023-05-14T11:12:13.473Z,63.35
2023-05-14T11:13:13.587Z,62.56
2023-05-14T11:14:13.677Z,61.86
2023-05-14T11:15:13.783Z,63.69
2023-05-14T11:16:22.712Z,61.93
2023-05-14T11:17:15.127Z,62.13
2023-05-14T11:18:14.379Z,61.44
2023-05-14T11:19:14.310Z,61.25
2023-05-14T11:20:14.397Z,60.64
2023-05-14T11:21:14.522Z,60.65
2023-05-14T11:22:14.627Z,61.38
2023-05-14T11:23:14.773Z,61.66
2023-05-14T11:24:14.835Z,61.73
2023-05-14T11:25:15.216Z,63.68
2023-05-14T11:26:15.124Z,63.23
2023-05-14T11:27:15.185Z,61.57
2023-05-14T11:28:15.381Z,61.04
2023-05-14T11:29:15.485Z,60.10
2023-05-14T11:30:15.649Z,59.07
2023-05-14T11:31:15.827Z,60.90
2023-05-14T11:32:15.854Z,59.55
2023-05-14T11:33:16.122Z,57.65
2023-05-14T11:34:16.090Z,59.82
2023-05-14T11:35:16.199Z,58.06
2023-05-14T11:36:16.404Z,59.12
2023-05-14T11:37:16.449Z,59.97
2023-05-14T11:38:16.544Z,59.69
2023-05-14T11:39:16.761Z,59.25
2023-05-14T11:40:17.013Z,58.72
2023-05-14T11:41:17.003Z,59.55
2023-05-14T11:42:17.193Z,58.36
2023-05-14T11:43:17.311Z,61.40
2023-05-14T11:44:17.366Z,59.02
2023-05-14T11:45:17.505Z,58.45
2023-05-14T11:46:17.680Z,59.19
2023-05-14T11:47:17.760Z,59.95
2023-05-14T11:48:17.883Z,58.48
2023-05-14T11:49:17.956Z,60.21
2023-05-14T11:50:18.053Z,57.25
2023-05-14T11:51:18.200Z,56.83
2023-05-14T11:52:18.311Z,56.82
2023-05-14T11:53:18.478Z,57.64
2023-05-14T11:54:18.513Z,57.81
2023-05-14T11:55:18.642Z,56.50
2023-05-14T11:56:18.751Z,58.15
2023-05-14T11:57:18.846Z,57.82
2023-05-14T11:58:18.999Z,56.14
2023-05-14T11:59:20.624Z,55.87
2023-05-14T12:00:19.320Z,56.63
2023-05-14T12:01:19.382Z,57.24
2023-05-14T12:02:19.569Z,59.38
2023-05-14T12:03:19.840Z,57.20
2023-05-14T12:04:19.844Z,56.42
2023-05-14T12:05:19.973Z,57.65
2023-05-14T12:06:20.028Z,55.21
2023-05-14T12:07:20.147Z,55.97
2023-05-14T12:08:20.269Z,55.81
2023-05-14T12:09:20.411Z,54.64
2023-05-14T12:10:20.539Z,55.48
2023-05-14T12:11:20.706Z,56.90
2023-05-14T12:12:20.750Z,55.90
2023-05-14T12:13:20.849Z,56.63
2023-05-14T12:14:20.969Z,54.83
2023-05-14T12:15:21.088Z,54.98
2023-05-14T12:16:21.262Z,55.02
2023-05-14T12:17:21.435Z,57.73
2023-05-14T12:18:25.073Z,55.04
2023-05-14T12:19:21.630Z,54.41
2023-05-14T12:20:21.869Z,55.42
2023-05-14T12:21:21.892Z,53.15
2023-05-14T12:22:21.999Z,53.32
2023-05-14T12:23:22.175Z,50.59
2023-05-14T12:24:22.198Z,46.75
2023-05-14T12:25:22.308Z,49.58
2023-05-14T12:26:22.591Z,46.80
2023-05-14T12:27:22.541Z,46.92
2023-05-14T12:28:22.662Z,50.73
2023-05-14T12:29:22.766Z,47.56
2023-05-14T12:30:22.939Z,49.82
2023-05-14T12:31:23.114Z,48.81
2023-05-14T12:32:23.223Z,47.44
2023-05-14T12:33:23.254Z,47.50
2023-05-14T12:34:23.399Z,47.89
2023-05-14T12:35:23.858Z,45.07
2023-05-14T12:36:23.641Z,46.85
2023-05-14T12:37:23.750Z,46.26
2023-05-14T12:38:23.848Z,52.74
2023-05-14T12:39:24.018Z,44.40
2023-05-14T12:40:24.471Z,45.95
2023-05-14T12:41:24.268Z,48.68
2023-05-14T12:42:24.376Z,46.81
2023-05-14T12:43:24.466Z,45.05
2023-05-14T12:44:24.769Z,45.22
2023-05-14T12:45:24.974Z,43.20
2023-05-14T12:46:24.886Z,49.36
2023-05-14T12:47:25.039Z,46.73
2023-05-14T12:48:25.304Z,44.58
2023-05-14T12:49:25.415Z,43.85
2023-05-14T12:50:25.673Z,43.19
2023-05-14T12:51:25.567Z,42.24
2023-05-14T12:52:36.920Z,41.31
2023-05-14T12:53:26.766Z,41.63
2023-05-14T12:54:25.908Z,41.71